Time;durP1;ratioP1;P1;durP2;ratioP2;P2;SDS_P1;SDS_P2;PMS_P1;PMS_P2;Temp;Humidity;BMP_temperature;BMP_pressure;BME280_temperature;BME280_humidity;BME280_pressure;Samples;Min_cycle;Max_cycle;Signal;HPM_P1;HPM_P2
2022/06/03 00:02:19;;;;;;;2.28;1.70;;;10.90;99.90;;;;;;4998456;28;20601;-94
2022/06/03 00:04:56;;;;;;;1.58;1.48;;;10.90;99.90;;;;;;4998796;28;20168;-93
2022/06/03 00:07:56;;;;;;;2.40;1.58;;;10.90;99.90;;;;;;4998759;28;20172;-93
2022/06/03 00:10:49;;;;;;;2.30;1.85;;;10.90;99.90;;;;;;4998716;28;20215;-93
2022/06/03 00:13:39;;;;;;;1.90;1.50;;;10.80;99.90;;;;;;4997319;28;20230;-93
2022/06/03 00:16:10;;;;;;;2.10;1.70;;;10.80;99.90;;;;;;4998621;28;20183;-92
2022/06/03 00:18:54;;;;;;;2.05;1.65;;;10.80;99.90;;;;;;4997716;28;20249;-94
2022/06/03 00:21:45;;;;;;;1.85;1.50;;;10.80;99.90;;;;;;4997466;28;20186;-94
2022/06/03 00:24:58;;;;;;;2.22;1.70;;;10.70;99.90;;;;;;4997652;28;20183;-93
2022/06/03 00:27:53;;;;;;;2.40;1.70;;;10.60;99.90;;;;;;4957734;29;20181;-93
2022/06/03 00:30:27;;;;;;;4.85;1.90;;;10.60;99.90;;;;;;4998269;28;20234;-92
2022/06/03 00:33:14;;;;;;;2.08;1.70;;;10.60;99.90;;;;;;4998199;28;20214;-92
2022/06/03 00:35:50;;;;;;;1.63;1.53;;;10.70;99.90;;;;;;4998277;28;20168;-92
2022/06/03 00:38:33;;;;;;;3.13;1.87;;;10.60;99.90;;;;;;5013370;28;20175;-93
2022/06/03 00:41:07;;;;;;;1.88;1.77;;;10.60;99.90;;;;;;4997007;28;20191;-93
2022/06/03 00:43:46;;;;;;;1.85;1.60;;;10.60;99.90;;;;;;4998142;28;20330;-93
2022/06/03 00:46:46;;;;;;;2.60;1.93;;;10.60;99.90;;;;;;5013152;28;20632;-93
2022/06/03 00:49:39;;;;;;;2.88;1.83;;;10.50;99.90;;;;;;4997984;28;20614;-93
2022/06/03 00:52:10;;;;;;;4.30;1.90;;;10.50;99.90;;;;;;4998218;28;20643;-94
2022/06/03 00:54:45;;;;;;;2.93;1.60;;;10.40;99.90;;;;;;4997558;28;20195;-94
2022/06/03 00:57:32;;;;;;;2.05;1.80;;;10.30;99.90;;;;;;4998383;28;20221;-94
2022/06/03 01:00:26;;;;;;;4.88;2.10;;;10.20;99.90;;;;;;4997789;28;20682;-93
2022/06/03 01:03:11;;;;;;;4.88;1.80;;;10.10;99.90;;;;;;4997566;28;20284;-91
2022/06/03 01:06:15;;;;;;;2.47;2.00;;;10.10;99.90;;;;;;4997689;28;20199;-92
2022/06/03 01:08:59;;;;;;;4.00;2.00;;;10.10;99.90;;;;;;4997530;28;20176;-94
2022/06/03 01:12:03;;;;;;;1.70;1.60;;;10.10;99.90;;;;;;4996375;28;20187;-93
2022/06/03 01:14:32;;;;;;;2.13;1.90;;;10.10;99.90;;;;;;5012852;28;20278;-93
2022/06/03 01:17:13;;;;;;;2.35;1.92;;;10.00;99.90;;;;;;4996412;28;20175;-91
2022/06/03 01:19:44;;;;;;;3.07;1.70;;;10.00;99.90;;;;;;4996331;28;20298;-92
2022/06/03 01:22:42;;;;;;;2.60;2.03;;;10.00;99.90;;;;;;4996291;28;20172;-93
2022/06/03 01:25:26;;;;;;;2.20;2.00;;;9.90;99.90;;;;;;4995685;28;20191;-92
2022/06/03 01:28:25;;;;;;;3.78;2.17;;;10.00;99.90;;;;;;4995976;28;20176;-93
2022/06/03 01:31:12;;;;;;;2.17;1.97;;;9.90;99.90;;;;;;4997208;28;20168;-92
2022/06/03 01:34:07;;;;;;;3.37;2.30;;;9.80;99.90;;;;;;4997055;28;20196;-91
2022/06/03 01:36:39;;;;;;;2.23;1.97;;;9.80;99.90;;;;;;4996255;28;20156;-92
2022/06/03 01:39:45;;;;;;;2.03;1.80;;;9.80;99.90;;;;;;4995985;28;20179;-92
2022/06/03 01:42:47;;;;;;;3.50;1.70;;;9.80;99.90;;;;;;4996972;28;20173;-94
2022/06/03 01:45:31;;;;;;;2.50;1.90;;;9.80;99.90;;;;;;4995968;28;20175;-94
2022/06/03 01:48:03;;;;;;;1.67;1.57;;;9.70;99.90;;;;;;4998121;28;20255;-94
2022/06/03 01:50:50;;;;;;;1.90;1.50;;;9.60;99.90;;;;;;5006066;28;20188;-92
2022/06/03 01:53:24;;;;;;;2.53;1.80;;;9.50;99.90;;;;;;5014631;28;20211;-94
2022/06/03 01:56:05;;;;;;;1.60;1.40;;;9.40;99.90;;;;;;4997643;28;20163;-95
2022/06/03 01:58:57;;;;;;;2.10;1.60;;;9.40;99.90;;;;;;4997863;28;20168;-95
2022/06/03 02:01:29;;;;;;;1.70;1.60;;;9.30;99.90;;;;;;4996167;28;20226;-92
2022/06/03 02:04:08;;;;;;;2.30;1.63;;;9.30;99.90;;;;;;4996715;28;20231;-92
2022/06/03 02:07:11;;;;;;;1.50;1.40;;;9.20;99.90;;;;;;4996428;28;20191;-95
2022/06/03 02:09:50;;;;;;;1.90;1.80;;;9.10;99.90;;;;;;4996116;28;20183;-93
2022/06/03 02:12:35;;;;;;;2.30;1.90;;;9.20;99.90;;;;;;4995525;28;20259;-91
2022/06/03 02:15:09;;;;;;;3.67;2.70;;;9.20;99.90;;;;;;4996342;28;20180;-93
2022/06/03 02:18:05;;;;;;;6.10;3.10;;;9.20;99.90;;;;;;4995556;28;20204;-93
2022/06/03 02:21:20;;;;;;;1.87;1.73;;;9.20;99.90;;;;;;4995340;28;20571;-93
2022/06/03 02:23:48;;;;;;;2.50;1.83;;;9.20;99.90;;;;;;4991673;28;20703;-93
2022/06/03 02:26:52;;;;;;;2.50;2.03;;;9.20;99.90;;;;;;4991739;28;20184;-94
2022/06/03 02:32:35;;;;;;;2.67;2.47;;;9.20;99.90;;;;;;4976791;28;20226;-93
2022/06/03 02:35:41;;;;;;;8.77;5.23;;;9.20;99.90;;;;;;4992028;28;20180;-93
2022/06/03 02:38:36;;;;;;;12.13;7.00;;;9.10;99.90;;;;;;4976756;28;20168;-92
2022/06/03 02:41:17;;;;;;;11.00;6.47;;;9.00;99.90;;;;;;4976483;28;20160;-91
2022/06/03 02:44:14;;;;;;;6.90;4.63;;;9.00;99.90;;;;;;4976605;28;20169;-93
2022/06/03 02:47:18;;;;;;;7.47;4.80;;;8.90;99.90;;;;;;4976486;28;20169;-94
2022/06/03 02:49:56;;;;;;;7.63;4.33;;;9.00;99.90;;;;;;4976727;28;20168;-95
2022/06/03 02:52:28;;;;;;;6.63;4.00;;;8.90;99.90;;;;;;4976789;28;20554;-94
2022/06/03 02:55:12;;;;;;;3.40;2.90;;;8.80;99.90;;;;;;4991472;28;20176;-95
2022/06/03 02:58:21;;;;;;;5.33;2.60;;;8.80;99.90;;;;;;4991575;28;20615;-94
2022/06/03 03:01:09;;;;;;;2.97;2.60;;;8.80;99.90;;;;;;4976400;28;20216;-93
2022/06/03 03:03:57;;;;;;;2.60;2.17;;;8.80;99.90;;;;;;4976669;28;20239;-95
2022/06/03 03:07:13;;;;;;;2.87;2.20;;;8.70;99.90;;;;;;4976579;28;20172;-94
2022/06/03 03:09:45;;;;;;;2.70;2.17;;;8.70;99.90;;;;;;4974245;28;20177;-93
2022/06/03 03:12:34;;;;;;;2.87;2.00;;;8.70;99.90;;;;;;4974324;28;20247;-93
2022/06/03 03:15:28;;;;;;;2.77;2.33;;;8.70;99.90;;;;;;4930547;28;20192;-93
2022/06/03 03:18:20;;;;;;;5.60;2.47;;;8.70;99.90;;;;;;4976217;28;20188;-94
2022/06/03 03:21:16;;;;;;;3.23;2.60;;;8.70;99.90;;;;;;4967567;28;20184;-94
2022/06/03 03:23:45;;;;;;;2.87;2.63;;;8.60;99.90;;;;;;5004918;28;20183;-92
2022/06/03 03:26:17;;;;;;;2.90;2.57;;;8.70;99.90;;;;;;5013934;28;20183;-94
2022/06/03 03:29:01;;;;;;;4.97;2.57;;;8.70;99.90;;;;;;5015159;28;20172;-93
2022/06/03 03:31:49;;;;;;;5.27;2.77;;;8.70;99.90;;;;;;5015448;28;20175;-94
2022/06/03 03:34:36;;;;;;;3.90;2.80;;;8.70;99.90;;;;;;5014056;28;20222;-93
2022/06/03 03:37:35;;;;;;;3.03;2.73;;;8.70;99.90;;;;;;5013979;28;20176;-93
2022/06/03 03:40:24;;;;;;;3.10;2.80;;;8.70;99.90;;;;;;5013674;28;20179;-93
2022/06/03 03:43:17;;;;;;;3.20;2.70;;;8.70;99.90;;;;;;5013884;28;20245;-94
2022/06/03 03:46:01;;;;;;;3.20;2.90;;;8.70;99.90;;;;;;5014951;28;20187;-88
2022/06/03 03:48:53;;;;;;;2.90;2.70;;;8.80;99.90;;;;;;5015173;28;20159;-93
2022/06/03 03:51:26;;;;;;;4.03;2.60;;;8.80;99.90;;;;;;5015433;28;20182;-91
2022/06/03 03:54:10;;;;;;;2.83;2.40;;;8.80;99.90;;;;;;4989840;28;20319;-93
2022/06/03 03:56:45;;;;;;;2.80;2.60;;;8.80;99.90;;;;;;4990989;28;20169;-93
2022/06/03 03:59:29;;;;;;;2.80;2.50;;;8.80;99.90;;;;;;4976045;28;20179;-93
2022/06/03 04:02:25;;;;;;;3.00;2.50;;;8.80;99.90;;;;;;4979333;28;20806;-94
2022/06/03 04:04:57;;;;;;;3.83;2.80;;;8.80;99.90;;;;;;4979163;28;20616;-94
2022/06/03 04:08:01;;;;;;;3.83;2.97;;;8.90;99.90;;;;;;4994591;28;20176;-93
2022/06/03 04:10:35;;;;;;;3.83;2.70;;;8.90;99.90;;;;;;4971314;28;20623;-93
2022/06/03 04:13:30;;;;;;;2.97;2.67;;;8.90;99.90;;;;;;4994049;28;20541;-93
2022/06/03 04:16:19;;;;;;;6.73;3.00;;;9.00;99.90;;;;;;4979270;28;20173;-94
2022/06/03 04:19:06;;;;;;;3.13;2.83;;;9.10;99.90;;;;;;4979125;28;20670;-93
2022/06/03 04:21:47;;;;;;;3.30;3.00;;;9.20;99.90;;;;;;4974911;28;20594;-94
2022/06/03 04:24:37;;;;;;;3.70;2.90;;;9.20;99.90;;;;;;4992538;28;21009;-92
2022/06/03 04:27:11;;;;;;;2.83;2.53;;;9.20;99.90;;;;;;5013524;28;20180;-91
2022/06/03 04:29:46;;;;;;;3.13;2.83;;;9.30;99.90;;;;;;4998374;28;20171;-93
2022/06/03 04:32:33;;;;;;;3.63;3.00;;;9.30;99.90;;;;;;4998200;28;20179;-92
2022/06/03 04:35:24;;;;;;;4.80;3.03;;;9.40;99.90;;;;;;5013651;28;20184;-94
2022/06/03 04:38:11;;;;;;;5.17;3.03;;;9.50;99.90;;;;;;4998275;28;20176;-94
2022/06/03 04:41:11;;;;;;;3.97;3.07;;;9.60;99.90;;;;;;4998245;28;20645;-93
2022/06/03 04:44:15;;;;;;;3.70;3.30;;;9.80;99.90;;;;;;4998171;28;20215;-92
2022/06/03 04:47:20;;;;;;;3.67;2.80;;;9.90;99.90;;;;;;5000207;28;20186;-94
2022/06/03 04:50:17;;;;;;;3.53;2.80;;;10.10;99.90;;;;;;5008558;28;20175;-89
2022/06/03 04:52:48;;;;;;;3.30;3.00;;;10.20;99.90;;;;;;4997690;28;20211;-92
2022/06/03 04:55:35;;;;;;;4.00;3.20;;;10.30;99.90;;;;;;5001168;28;20283;-92
2022/06/03 04:58:04;;;;;;;4.60;2.80;;;10.40;99.90;;;;;;4998057;28;20172;-92
2022/06/03 05:01:04;;;;;;;2.95;2.75;;;10.60;99.90;;;;;;4996690;28;20275;-92
2022/06/03 05:03:49;;;;;;;3.27;2.87;;;10.60;99.90;;;;;;4997780;28;20255;-90
2022/06/03 05:06:36;;;;;;;4.10;2.80;;;10.80;99.90;;;;;;4996694;28;20518;-93
2022/06/03 05:09:35;;;;;;;7.03;3.50;;;10.90;99.90;;;;;;4996496;28;20172;-90
2022/06/03 05:12:25;;;;;;;2.63;2.38;;;11.00;99.90;;;;;;4997718;28;20176;-92
2022/06/03 05:15:31;;;;;;;4.13;2.97;;;11.10;99.90;;;;;;4997455;28;20176;-91
2022/06/03 05:18:07;;;;;;;4.43;3.13;;;11.20;99.90;;;;;;5013108;28;20186;-91
2022/06/03 05:20:35;;;;;;;4.30;2.78;;;11.30;99.90;;;;;;4997395;28;20633;-91
2022/06/03 05:23:19;;;;;;;3.25;2.55;;;11.40;99.90;;;;;;4997470;28;20175;-91
2022/06/03 05:26:06;;;;;;;4.82;3.50;;;11.50;99.90;;;;;;5015686;28;20183;-91
2022/06/03 05:28:47;;;;;;;5.57;3.20;;;11.50;99.90;;;;;;5015732;28;20179;-90
2022/06/03 05:31:41;;;;;;;4.43;3.60;;;11.60;99.90;;;;;;5017167;28;20159;-91
2022/06/03 05:34:10;;;;;;;3.45;2.55;;;11.70;99.90;;;;;;5016746;28;20286;-89
2022/06/03 05:36:57;;;;;;;6.60;3.10;;;11.60;99.90;;;;;;5016341;28;20168;-90
2022/06/03 05:39:42;;;;;;;3.88;3.00;;;11.70;99.90;;;;;;4976265;28;20169;-88
2022/06/03 05:42:41;;;;;;;4.82;3.15;;;11.80;99.90;;;;;;4992336;28;20271;-88
2022/06/03 05:45:25;;;;;;;3.78;2.90;;;11.90;99.90;;;;;;4977274;28;20161;-88
2022/06/03 05:47:54;;;;;;;3.55;2.95;;;11.90;99.90;;;;;;4992530;28;20180;-89
2022/06/03 05:50:43;;;;;;;6.00;3.38;;;12.10;99.90;;;;;;4976274;28;20169;-88
2022/06/03 05:53:20;;;;;;;6.05;3.25;;;12.20;99.90;;;;;;4992328;28;20222;-86
2022/06/03 05:55:52;;;;;;;3.28;2.40;;;12.30;99.90;;;;;;5000311;28;20180;-89
2022/06/03 05:58:52;;;;;;;7.28;2.60;;;12.30;99.90;;;;;;4976221;28;20169;-90
2022/06/03 06:01:44;;;;;;;2.92;2.63;;;12.40;99.90;;;;;;4975997;28;20208;-89
2022/06/03 06:04:25;;;;;;;4.38;3.17;;;12.50;99.90;;;;;;4977114;28;20183;-90
2022/06/03 06:06:55;;;;;;;6.57;2.97;;;12.60;99.90;;;;;;4990317;28;20192;-89
2022/06/03 06:09:39;;;;;;;8.90;2.70;;;12.70;99.90;;;;;;4996137;28;20171;-88
2022/06/03 06:12:21;;;;;;;3.15;2.60;;;12.80;99.90;;;;;;4995324;28;20313;-88
2022/06/03 06:15:24;;;;;;;4.40;2.50;;;12.90;99.90;;;;;;4996489;28;20172;-89
2022/06/03 06:18:21;;;;;;;3.35;2.30;;;13.10;99.90;;;;;;4983220;28;20172;-90
2022/06/03 06:20:52;;;;;;;3.92;2.30;;;13.30;99.90;;;;;;4975146;28;20533;-88
2022/06/03 06:23:20;;;;;;;3.42;2.15;;;13.40;99.90;;;;;;4975216;28;20349;-93
2022/06/03 06:26:14;;;;;;;4.25;2.28;;;13.40;99.90;;;;;;4990947;28;20212;-88
2022/06/03 06:29:18;;;;;;;4.78;2.10;;;13.60;99.90;;;;;;4975691;28;20179;-90
2022/06/03 06:31:54;;;;;;;5.43;2.42;;;13.80;99.90;;;;;;4975608;28;20196;-88
2022/06/03 06:34:42;;;;;;;4.05;1.83;;;14.00;99.90;;;;;;4975174;28;20211;-88
2022/06/03 06:37:39;;;;;;;2.08;1.85;;;14.10;99.90;;;;;;4975653;28;20176;-90
2022/06/03 06:40:29;;;;;;;3.88;1.73;;;14.20;99.90;;;;;;4976501;28;20287;-92
2022/06/03 06:43:12;;;;;;;2.60;2.00;;;14.30;99.90;;;;;;4975534;28;20185;-88
2022/06/03 06:45:56;;;;;;;2.22;1.80;;;14.60;99.90;;;;;;4976398;28;20169;-89
2022/06/03 06:48:40;;;;;;;3.13;1.67;;;14.70;99.90;;;;;;4975318;28;20522;-89
2022/06/03 06:51:12;;;;;;;4.25;1.77;;;14.90;99.90;;;;;;4976638;28;20172;-92
2022/06/03 06:53:42;;;;;;;2.20;1.60;;;15.10;99.90;;;;;;4977070;28;20217;-87
2022/06/03 06:56:38;;;;;;;4.97;1.73;;;15.30;99.90;;;;;;4995640;28;20180;-88
2022/06/03 06:59:13;;;;;;;2.42;1.60;;;15.40;99.90;;;;;;4995770;28;20611;-92
2022/06/03 07:01:48;;;;;;;2.00;1.33;;;15.60;99.90;;;;;;4995682;28;20167;-93
2022/06/03 07:04:28;;;;;;;2.28;1.52;;;15.80;99.90;;;;;;4995833;28;20246;-87
2022/06/03 07:07:00;;;;;;;2.67;1.85;;;16.00;99.90;;;;;;4994807;28;20619;-92
2022/06/03 07:09:38;;;;;;;4.35;1.67;;;16.20;99.90;;;;;;4995564;28;20163;-90
2022/06/03 07:12:14;;;;;;;3.38;1.70;;;16.40;99.90;;;;;;4995816;28;20174;-91
2022/06/03 07:14:53;;;;;;;13.38;2.40;;;16.50;99.90;;;;;;4995608;28;20192;-91
2022/06/03 07:20:40;;;;;;;2.83;1.70;;;16.70;99.90;;;;;;4995785;28;20179;-92
2022/06/03 07:23:36;;;;;;;6.10;1.70;;;16.80;99.90;;;;;;5011144;28;20211;-89
2022/06/03 07:26:16;;;;;;;3.30;1.50;;;17.00;99.90;;;;;;5010489;28;20183;-90
2022/06/03 07:28:51;;;;;;;2.78;1.23;;;17.20;99.90;;;;;;5010786;28;20562;-93
2022/06/03 07:31:29;;;;;;;52.25;5.85;;;17.40;99.90;;;;;;4995906;28;20159;-91
2022/06/03 07:33:57;;;;;;;25.25;3.35;;;17.60;99.90;;;;;;4994503;28;20234;-90
2022/06/03 07:36:40;;;;;;;13.88;2.95;;;17.60;99.90;;;;;;4997410;28;20171;-90
2022/06/03 07:39:34;;;;;;;6.55;2.08;;;17.80;99.90;;;;;;4998268;28;20176;-92
2022/06/03 07:42:09;;;;;;;15.68;2.75;;;17.90;99.90;;;;;;4999386;28;20200;-91
2022/06/03 07:44:54;;;;;;;21.05;3.53;;;18.10;99.90;;;;;;4998917;28;20266;-87
2022/06/03 07:47:20;;;;;;;10.88;2.55;;;18.20;99.90;;;;;;4999099;28;20167;-90
2022/06/03 07:50:07;;;;;;;2.40;1.08;;;18.30;99.50;;;;;;5014349;28;20180;-92
2022/06/03 07:53:06;;;;;;;1.50;1.10;;;18.30;98.80;;;;;;4997801;28;20180;-90
2022/06/03 07:55:32;;;;;;;5.60;1.70;;;18.50;98.70;;;;;;4998364;28;20194;-89
2022/06/03 07:58:06;;;;;;;2.17;1.15;;;18.50;97.90;;;;;;5014112;28;20187;-89
2022/06/03 08:00:38;;;;;;;2.10;1.10;;;18.70;99.50;;;;;;4997717;28;20179;-92
2022/06/03 08:03:30;;;;;;;3.65;1.92;;;18.90;99.90;;;;;;5013844;28;20680;-89
2022/06/03 08:06:02;;;;;;;2.33;1.10;;;18.90;99.10;;;;;;4995127;28;20623;-88
2022/06/03 08:11:18;;;;;;;13.80;2.95;;;19.20;98.10;;;;;;4999993;28;20223;-88
2022/06/03 08:13:52;;;;;;;21.48;3.95;;;19.10;98.30;;;;;;5004884;28;20200;-87
2022/06/03 08:16:36;;;;;;;34.28;4.28;;;19.20;98.10;;;;;;4998182;28;20302;-90
2022/06/03 08:19:15;;;;;;;13.15;2.47;;;19.20;97.30;;;;;;5013640;28;20224;-90
2022/06/03 08:21:53;;;;;;;2.13;1.38;;;19.20;98.20;;;;;;4998584;28;20225;-91
2022/06/03 08:24:22;;;;;;;3.30;1.88;;;19.30;98.40;;;;;;4998264;28;20190;-89
2022/06/03 08:26:59;;;;;;;28.60;5.72;;;19.50;98.30;;;;;;4997984;28;20299;-90
2022/06/03 08:29:39;;;;;;;14.02;2.58;;;19.50;97.40;;;;;;5013473;28;20184;-88
2022/06/03 08:32:15;;;;;;;21.40;3.53;;;19.70;96.70;;;;;;5013427;28;20210;-92
2022/06/03 08:34:48;;;;;;;4.95;1.85;;;19.70;95.90;;;;;;5013108;28;20210;-92
2022/06/03 08:37:22;;;;;;;3.65;1.58;;;19.70;96.60;;;;;;5013211;28;20516;-86
2022/06/03 08:39:51;;;;;;;4.57;1.70;;;19.70;95.60;;;;;;5013197;28;20258;-93
2022/06/03 08:42:29;;;;;;;5.63;1.48;;;19.70;97.20;;;;;;4997979;28;20268;-89
2022/06/03 08:45:07;;;;;;;2.50;1.30;;;20.00;97.80;;;;;;4996697;28;20176;-89
2022/06/03 08:47:37;;;;;;;2.03;1.35;;;20.20;98.10;;;;;;4996595;28;20180;-90
2022/06/03 08:50:13;;;;;;;6.05;1.50;;;20.30;96.80;;;;;;4998150;28;20607;-90
2022/06/03 08:53:20;;;;;;;23.27;3.15;;;20.50;97.00;;;;;;4996817;28;20199;-89
2022/06/03 08:55:59;;;;;;;3.85;1.20;;;20.70;96.20;;;;;;5012529;28;20191;-89
2022/06/03 08:58:33;;;;;;;3.03;1.10;;;20.80;95.50;;;;;;5012910;28;20603;-91
2022/06/03 09:01:27;;;;;;;1.85;1.30;;;20.90;95.30;;;;;;5012899;28;20180;-86
2022/06/03 09:04:17;;;;;;;1.70;1.38;;;21.00;95.10;;;;;;4997417;28;20258;-89
2022/06/03 09:07:01;;;;;;;1.80;1.10;;;20.80;92.90;;;;;;4997478;28;20184;-88
2022/06/03 09:09:49;;;;;;;1.42;1.00;;;20.90;93.40;;;;;;4996412;28;20242;-91
2022/06/03 09:12:30;;;;;;;1.33;1.23;;;21.00;93.80;;;;;;5012667;28;20179;-93
2022/06/03 09:15:08;;;;;;;2.17;1.23;;;20.90;92.60;;;;;;4995910;28;20215;-89
2022/06/03 09:17:48;;;;;;;2.10;0.90;;;21.00;93.30;;;;;;5012402;28;20532;-88
2022/06/03 09:20:18;;;;;;;1.13;0.95;;;21.20;93.20;;;;;;5012539;28;20630;-91
2022/06/03 09:22:46;;;;;;;4.22;1.65;;;21.30;92.50;;;;;;5012333;28;20202;-87
2022/06/03 09:25:15;;;;;;;1.15;1.05;;;21.30;91.70;;;;;;4995504;28;20191;-88
2022/06/03 09:27:42;;;;;;;1.58;1.00;;;21.50;92.30;;;;;;4995801;28;20175;-88
2022/06/03 09:30:10;;;;;;;1.10;0.93;;;21.50;91.40;;;;;;4995778;28;20261;-88
2022/06/03 09:32:47;;;;;;;1.17;1.05;;;21.60;92.40;;;;;;4995618;28;20179;-89
2022/06/03 09:35:19;;;;;;;2.90;1.10;;;21.80;92.70;;;;;;4996757;28;20168;-87
2022/06/03 09:37:51;;;;;;;1.15;1.05;;;21.90;92.50;;;;;;4995466;28;20520;-89
2022/06/03 09:40:21;;;;;;;2.55;1.30;;;22.00;91.80;;;;;;4995621;28;20179;-91
2022/06/03 09:42:57;;;;;;;1.42;1.00;;;22.10;90.90;;;;;;4995832;28;20549;-91
2022/06/03 09:45:24;;;;;;;1.65;1.00;;;22.10;91.10;;;;;;4995532;28;20176;-88
2022/06/03 09:47:51;;;;;;;1.20;0.90;;;22.10;89.80;;;;;;4996640;28;20179;-89
2022/06/03 09:50:20;;;;;;;0.93;0.90;;;22.00;90.60;;;;;;5011598;28;20766;-89
2022/06/03 09:52:48;;;;;;;2.08;0.77;;;22.10;90.70;;;;;;4995358;28;20199;-89
2022/06/03 09:55:41;;;;;;;1.50;0.98;;;22.20;90.10;;;;;;4996142;28;20278;-89
2022/06/03 09:58:15;;;;;;;1.02;0.93;;;22.30;90.90;;;;;;4994210;28;20230;-88
2022/06/03 10:00:46;;;;;;;8.95;1.73;;;22.50;89.20;;;;;;5011766;28;20519;-86
2022/06/03 10:03:12;;;;;;;7.93;1.25;;;22.50;90.20;;;;;;4996133;28;20216;-88
2022/06/03 10:05:39;;;;;;;5.00;1.15;;;22.50;89.20;;;;;;4996164;28;20176;-88
2022/06/03 10:08:09;;;;;;;2.80;1.50;;;22.70;90.80;;;;;;4996407;28;20171;-88
2022/06/03 10:13:20;;;;;;;2.47;1.10;;;22.70;86.60;;;;;;4996248;28;20254;-89
2022/06/03 10:16:03;;;;;;;1.13;1.00;;;22.90;87.30;;;;;;5011332;28;20559;-91
2022/06/03 10:18:42;;;;;;;3.13;1.17;;;22.90;86.40;;;;;;5011407;28;20222;-92
2022/06/03 10:21:08;;;;;;;1.23;0.80;;;22.80;90.10;;;;;;5011411;28;20168;-89
2022/06/03 10:23:37;;;;;;;2.05;1.10;;;22.60;86.10;;;;;;4994441;28;20234;-88
2022/06/03 10:26:04;;;;;;;4.00;1.25;;;22.40;87.60;;;;;;5011845;28;20195;-88
2022/06/03 10:28:38;;;;;;;1.08;0.98;;;22.30;88.80;;;;;;5015665;28;20175;-89
2022/06/03 10:31:07;;;;;;;1.30;0.90;;;22.50;86.50;;;;;;5015790;28;20163;-88
2022/06/03 10:33:33;;;;;;;2.13;0.90;;;22.60;88.90;;;;;;5014078;28;20568;-87
2022/06/03 10:36:01;;;;;;;1.30;0.90;;;22.80;89.40;;;;;;5014237;28;20179;-89
2022/06/03 10:38:33;;;;;;;1.67;0.98;;;23.00;88.80;;;;;;5014402;28;20270;-90
2022/06/03 10:41:06;;;;;;;0.98;0.88;;;23.10;85.40;;;;;;5014041;28;20182;-89
2022/06/03 10:43:34;;;;;;;0.70;0.70;;;23.10;85.70;;;;;;5014366;28;20602;-86
2022/06/03 10:46:15;;;;;;;1.63;0.90;;;23.20;84.40;;;;;;5015199;28;20176;-86
2022/06/03 10:48:42;;;;;;;2.60;1.00;;;23.30;85.00;;;;;;5014115;28;20272;-87
2022/06/03 11:01:06;;;;;;;0.82;0.73;;;23.40;88.00;;;;;;5014245;28;20167;-89
2022/06/03 11:02:38;;;;;;;1.13;1.00;;;23.40;83.70;;;;;;4977735;28;20255;-86
2022/06/03 11:05:29;;;;;;;2.13;1.20;;;23.50;84.00;;;;;;4986264;28;20184;-91
2022/06/03 11:08:07;;;;;;;0.80;0.70;;;23.50;85.70;;;;;;4990146;28;20716;-85
2022/06/03 11:10:41;;;;;;;2.90;0.90;;;23.60;85.30;;;;;;4996072;28;20193;-90
2022/06/03 11:13:09;;;;;;;1.27;0.80;;;23.70;85.80;;;;;;4993844;28;20306;-87
2022/06/03 11:15:39;;;;;;;1.85;1.00;;;23.80;83.80;;;;;;4995478;28;20207;-89
2022/06/03 11:18:21;;;;;;;1.25;0.82;;;23.90;84.20;;;;;;4990622;28;20195;-85
2022/06/03 11:20:50;;;;;;;1.13;1.02;;;24.00;81.70;;;;;;4993789;28;20187;-86
2022/06/03 11:23:16;;;;;;;1.33;1.05;;;23.90;80.90;;;;;;5003719;28;20184;-88
2022/06/03 11:25:49;;;;;;;1.85;1.00;;;23.90;82.80;;;;;;4996698;28;20184;-86
2022/06/03 11:28:26;;;;;;;2.15;1.20;;;24.00;82.20;;;;;;4993618;28;20180;-87
2022/06/03 11:31:06;;;;;;;2.17;0.82;;;24.00;84.60;;;;;;4995609;28;20206;-88
2022/06/03 11:33:58;;;;;;;1.05;0.85;;;24.10;82.80;;;;;;4995822;28;20238;-91
2022/06/03 11:36:24;;;;;;;1.35;0.93;;;24.10;82.10;;;;;;4984724;28;20206;-86
2022/06/03 11:38:57;;;;;;;1.27;0.90;;;24.20;86.20;;;;;;4998797;28;20514;-87
2022/06/03 11:41:29;;;;;;;1.30;0.90;;;24.30;84.60;;;;;;4990840;28;20651;-87
2022/06/03 11:44:08;;;;;;;0.85;0.85;;;24.40;85.00;;;;;;4997117;28;20619;-86
2022/06/03 11:47:02;;;;;;;2.72;1.02;;;24.50;82.70;;;;;;4996486;28;20180;-87
2022/06/03 11:49:28;;;;;;;1.05;0.90;;;24.50;82.70;;;;;;4989469;28;20191;-86
2022/06/03 11:51:55;;;;;;;1.95;1.10;;;24.70;83.30;;;;;;4998326;28;20192;-90
2022/06/03 11:54:25;;;;;;;1.45;0.80;;;24.70;82.00;;;;;;4995993;28;20665;-86
2022/06/03 11:56:52;;;;;;;0.95;0.90;;;24.70;80.60;;;;;;4995915;28;20187;-86
2022/06/03 11:59:29;;;;;;;2.40;1.13;;;24.80;83.30;;;;;;4998135;28;20192;-86
2022/06/03 12:02:19;;;;;;;3.53;1.10;;;24.80;83.10;;;;;;4995857;28;20274;-86
2022/06/03 12:04:58;;;;;;;1.73;0.90;;;24.90;79.10;;;;;;4998329;28;20566;-86
2022/06/03 12:07:36;;;;;;;4.00;1.25;;;24.90;79.30;;;;;;4998462;28;20512;-87
2022/06/03 12:10:33;;;;;;;1.75;1.15;;;25.00;80.10;;;;;;4997627;28;20234;-89
2022/06/03 12:13:30;;;;;;;0.95;0.95;;;25.00;82.30;;;;;;4996076;28;20215;-86
2022/06/03 12:15:56;;;;;;;2.30;0.90;;;24.80;76.60;;;;;;4996271;28;20641;-85
2022/06/03 12:18:31;;;;;;;1.45;0.85;;;24.90;82.20;;;;;;5013174;28;20179;-88
2022/06/03 12:21:03;;;;;;;3.33;1.10;;;25.10;79.30;;;;;;4992254;28;20238;-86
2022/06/03 12:23:28;;;;;;;2.42;1.05;;;25.20;80.60;;;;;;4986334;28;20195;-83
2022/06/03 12:25:57;;;;;;;1.13;0.90;;;25.20;79.70;;;;;;4998422;28;20614;-84
2022/06/03 12:28:45;;;;;;;0.77;0.70;;;25.30;81.10;;;;;;5015928;28;20179;-84
2022/06/03 12:31:20;;;;;;;1.42;0.90;;;25.50;82.50;;;;;;4986579;28;20180;-85
2022/06/03 12:34:09;;;;;;;2.25;1.08;;;25.70;80.80;;;;;;4995442;28;20211;-85
2022/06/03 12:36:45;;;;;;;1.10;0.85;;;25.80;82.10;;;;;;4995507;28;20641;-86
2022/06/03 12:39:24;;;;;;;2.60;1.02;;;25.90;79.10;;;;;;4995702;28;20588;-85
2022/06/03 12:41:50;;;;;;;2.78;0.80;;;26.00;79.20;;;;;;5011265;28;20195;-86
2022/06/03 12:44:41;;;;;;;3.03;1.13;;;26.00;78.10;;;;;;4995369;28;20188;-85
2022/06/03 12:47:27;;;;;;;0.88;0.85;;;26.00;75.90;;;;;;4986440;28;20635;-85
2022/06/03 12:50:23;;;;;;;1.52;1.15;;;26.00;78.50;;;;;;4995251;28;20195;-85
2022/06/03 12:52:53;;;;;;;1.20;0.75;;;26.00;79.70;;;;;;4990865;28;20226;-84
2022/06/03 12:55:27;;;;;;;1.23;1.02;;;26.00;76.60;;;;;;4996814;28;20198;-86
2022/06/03 12:57:57;;;;;;;0.70;0.70;;;26.00;77.50;;;;;;4996595;28;20188;-85
2022/06/03 13:00:26;;;;;;;1.50;1.00;;;26.10;76.00;;;;;;5012431;28;20626;-87
2022/06/03 13:02:53;;;;;;;0.80;0.80;;;26.00;76.80;;;;;;4995086;28;20569;-83
2022/06/03 13:05:25;;;;;;;1.27;0.98;;;26.20;78.30;;;;;;4996172;28;20187;-85
2022/06/03 13:07:58;;;;;;;0.80;0.80;;;26.10;73.20;;;;;;4993034;28;20226;-86
2022/06/03 13:10:26;;;;;;;1.27;0.80;;;25.60;72.70;;;;;;4996967;28;20279;-86
2022/06/03 13:12:55;;;;;;;1.75;1.10;;;25.40;75.90;;;;;;4996260;28;20250;-85
2022/06/03 13:15:20;;;;;;;4.97;1.10;;;25.40;75.70;;;;;;4994562;28;20286;-85
2022/06/03 13:18:13;;;;;;;3.10;0.90;;;25.40;74.90;;;;;;4995420;28;20274;-85
2022/06/03 13:21:06;;;;;;;1.75;0.80;;;25.50;80.00;;;;;;4977099;28;20651;-86
2022/06/03 13:23:35;;;;;;;0.77;0.77;;;25.80;78.50;;;;;;4994891;28;20191;-84
2022/06/03 13:26:21;;;;;;;1.27;0.90;;;26.20;77.10;;;;;;5011296;28;20195;-85
2022/06/03 13:28:48;;;;;;;1.48;0.82;;;26.30;73.70;;;;;;4984966;28;20194;-83
2022/06/03 13:31:26;;;;;;;1.15;1.05;;;26.40;74.10;;;;;;4995839;28;20226;-86
2022/06/03 13:34:10;;;;;;;1.42;0.85;;;26.30;75.40;;;;;;4995404;28;20207;-84
2022/06/03 13:36:38;;;;;;;2.13;0.95;;;26.40;74.60;;;;;;4991537;28;20184;-88
2022/06/03 13:39:26;;;;;;;3.50;0.88;;;26.50;74.60;;;;;;4985275;28;20188;-87
2022/06/03 13:44:53;;;;;;;1.35;0.90;;;26.20;76.50;;;;;;4996156;28;20222;-84
2022/06/03 13:47:19;;;;;;;1.65;0.80;;;26.00;75.00;;;;;;4994291;28;20187;-85
2022/06/03 13:50:18;;;;;;;1.00;0.70;;;26.00;75.80;;;;;;4994178;28;20203;-85
2022/06/03 13:52:46;;;;;;;3.13;1.05;;;26.10;75.90;;;;;;4995514;28;20187;-85
2022/06/03 13:55:24;;;;;;;1.35;0.70;;;26.00;74.20;;;;;;4996145;28;20186;-85
2022/06/03 13:57:58;;;;;;;3.00;0.90;;;26.30;75.00;;;;;;5009962;28;20191;-86
2022/06/03 14:00:36;;;;;;;0.98;0.85;;;26.50;75.00;;;;;;4977012;28;20193;-88
2022/06/03 14:03:10;;;;;;;1.95;0.70;;;26.40;74.60;;;;;;4990368;28;20242;-83
2022/06/03 14:05:41;;;;;;;0.80;0.73;;;26.40;72.20;;;;;;4995442;28;20239;-86
2022/06/03 14:08:33;;;;;;;1.67;0.75;;;26.40;71.90;;;;;;4994540;28;20184;-88
2022/06/03 14:11:16;;;;;;;1.15;0.90;;;26.20;70.10;;;;;;4996491;28;20184;-92
2022/06/03 14:14:04;;;;;;;2.97;0.80;;;26.10;72.00;;;;;;5010019;28;20223;-85
2022/06/03 14:16:39;;;;;;;1.10;0.70;;;25.80;72.80;;;;;;5009953;28;20188;-91
2022/06/03 14:19:08;;;;;;;6.82;0.85;;;25.90;72.20;;;;;;4994446;28;20190;-90
2022/06/03 14:21:50;;;;;;;1.02;0.82;;;26.00;71.20;;;;;;4995519;28;20191;-87
2022/06/03 14:24:33;;;;;;;0.80;0.77;;;26.00;74.00;;;;;;5002091;28;20519;-88